sensor_id;sensor_type;location;lat;lon;timestamp;P1;durP1;ratioP1;P2;durP2;ratioP2
18172;SDS011;9211;48.818;9.312;2024-03-29T00:02:16;1.70;;;0.80;;
18172;SDS011;9211;48.818;9.312;2024-03-29T00:04:42;2.38;;;0.77;;
18172;SDS011;9211;48.818;9.312;2024-03-29T00:07:08;1.33;;;0.60;;
18172;SDS011;9211;48.818;9.312;2024-03-29T00:09:34;1.83;;;0.70;;
18172;SDS011;9211;48.818;9.312;2024-03-29T00:12:01;1.52;;;0.60;;
18172;SDS011;9211;48.818;9.312;2024-03-29T00:14:27;1.65;;;0.70;;
18172;SDS011;9211;48.818;9.312;2024-03-29T00:16:53;1.67;;;0.70;;
18172;SDS011;9211;48.818;9.312;2024-03-29T00:19:21;1.58;;;0.63;;
18172;SDS011;9211;48.818;9.312;2024-03-29T00:21:47;1.50;;;0.80;;
18172;SDS011;9211;48.818;9.312;2024-03-29T00:24:14;3.20;;;1.25;;
18172;SDS011;9211;48.818;9.312;2024-03-29T00:26:40;3.13;;;1.30;;
18172;SDS011;9211;48.818;9.312;2024-03-29T00:29:07;5.75;;;1.48;;
18172;SDS011;9211;48.818;9.312;2024-03-29T00:31:33;3.92;;;1.30;;
18172;SDS011;9211;48.818;9.312;2024-03-29T00:33:59;4.28;;;1.63;;
18172;SDS011;9211;48.818;9.312;2024-03-29T00:36:27;3.35;;;1.67;;
18172;SDS011;9211;48.818;9.312;2024-03-29T00:38:53;3.75;;;1.58;;
18172;SDS011;9211;48.818;9.312;2024-03-29T00:41:19;4.00;;;1.50;;
18172;SDS011;9211;48.818;9.312;2024-03-29T00:43:46;3.33;;;1.50;;
18172;SDS011;9211;48.818;9.312;2024-03-29T00:46:12;3.95;;;1.63;;
18172;SDS011;9211;48.818;9.312;2024-03-29T00:48:38;3.70;;;1.52;;
18172;SDS011;9211;48.818;9.312;2024-03-29T00:51:05;3.25;;;1.20;;
18172;SDS011;9211;48.818;9.312;2024-03-29T00:53:32;3.72;;;1.30;;
18172;SDS011;9211;48.818;9.312;2024-03-29T00:55:58;2.22;;;1.42;;
18172;SDS011;9211;48.818;9.312;2024-03-29T00:58:25;3.70;;;1.65;;
18172;SDS011;9211;48.818;9.312;2024-03-29T01:00:51;2.63;;;1.20;;
18172;SDS011;9211;48.818;9.312;2024-03-29T01:03:17;3.22;;;1.40;;
18172;SDS011;9211;48.818;9.312;2024-03-29T01:05:44;3.20;;;1.40;;
18172;SDS011;9211;48.818;9.312;2024-03-29T01:08:10;3.88;;;1.40;;
18172;SDS011;9211;48.818;9.312;2024-03-29T01:10:38;3.53;;;1.20;;
18172;SDS011;9211;48.818;9.312;2024-03-29T01:13:04;3.08;;;1.20;;
18172;SDS011;9211;48.818;9.312;2024-03-29T01:15:30;2.28;;;1.13;;
18172;SDS011;9211;48.818;9.312;2024-03-29T01:17:56;4.57;;;1.40;;
18172;SDS011;9211;48.818;9.312;2024-03-29T01:20:23;3.55;;;1.20;;
18172;SDS011;9211;48.818;9.312;2024-03-29T01:22:49;4.70;;;1.15;;
18172;SDS011;9211;48.818;9.312;2024-03-29T01:25:15;2.70;;;1.08;;
18172;SDS011;9211;48.818;9.312;2024-03-29T01:27:43;2.63;;;1.10;;
18172;SDS011;9211;48.818;9.312;2024-03-29T01:30:10;2.70;;;1.10;;
18172;SDS011;9211;48.818;9.312;2024-03-29T01:32:36;3.47;;;1.10;;
18172;SDS011;9211;48.818;9.312;2024-03-29T01:35:03;3.20;;;1.23;;
18172;SDS011;9211;48.818;9.312;2024-03-29T01:37:29;3.50;;;1.27;;
18172;SDS011;9211;48.818;9.312;2024-03-29T01:39:56;2.42;;;1.02;;
18172;SDS011;9211;48.818;9.312;2024-03-29T01:42:22;2.10;;;0.97;;
18172;SDS011;9211;48.818;9.312;2024-03-29T01:44:50;3.63;;;1.00;;
18172;SDS011;9211;48.818;9.312;2024-03-29T01:47:17;1.47;;;0.83;;
18172;SDS011;9211;48.818;9.312;2024-03-29T01:49:44;3.85;;;1.00;;
18172;SDS011;9211;48.818;9.312;2024-03-29T01:52:12;2.87;;;1.03;;
18172;SDS011;9211;48.818;9.312;2024-03-29T01:54:39;2.65;;;1.00;;
18172;SDS011;9211;48.818;9.312;2024-03-29T01:57:06;1.70;;;1.10;;
18172;SDS011;9211;48.818;9.312;2024-03-29T01:59:34;1.60;;;0.90;;
18172;SDS011;9211;48.818;9.312;2024-03-29T02:02:03;4.25;;;1.20;;
18172;SDS011;9211;48.818;9.312;2024-03-29T02:04:31;3.67;;;0.98;;
18172;SDS011;9211;48.818;9.312;2024-03-29T02:06:59;2.40;;;1.13;;
18172;SDS011;9211;48.818;9.312;2024-03-29T02:09:28;2.20;;;0.80;;
18172;SDS011;9211;48.818;9.312;2024-03-29T02:11:56;2.08;;;0.80;;
18172;SDS011;9211;48.818;9.312;2024-03-29T02:14:23;1.80;;;0.80;;
18172;SDS011;9211;48.818;9.312;2024-03-29T02:16:50;2.95;;;0.88;;
18172;SDS011;9211;48.818;9.312;2024-03-29T02:19:19;2.75;;;0.60;;
18172;SDS011;9211;48.818;9.312;2024-03-29T02:21:47;1.40;;;0.60;;
18172;SDS011;9211;48.818;9.312;2024-03-29T02:24:17;1.65;;;0.63;;
18172;SDS011;9211;48.818;9.312;2024-03-29T02:26:44;1.30;;;0.70;;
18172;SDS011;9211;48.818;9.312;2024-03-29T02:29:12;1.60;;;0.80;;
18172;SDS011;9211;48.818;9.312;2024-03-29T02:31:39;2.25;;;0.70;;
18172;SDS011;9211;48.818;9.312;2024-03-29T02:34:06;1.92;;;0.65;;
18172;SDS011;9211;48.818;9.312;2024-03-29T02:36:33;2.25;;;0.60;;
18172;SDS011;9211;48.818;9.312;2024-03-29T02:39:00;1.40;;;0.50;;
18172;SDS011;9211;48.818;9.312;2024-03-29T02:41:29;1.73;;;0.50;;
18172;SDS011;9211;48.818;9.312;2024-03-29T02:43:56;1.70;;;0.60;;
18172;SDS011;9211;48.818;9.312;2024-03-29T02:46:23;1.70;;;0.60;;
18172;SDS011;9211;48.818;9.312;2024-03-29T02:48:51;2.22;;;0.80;;
18172;SDS011;9211;48.818;9.312;2024-03-29T02:51:17;1.77;;;0.55;;
18172;SDS011;9211;48.818;9.312;2024-03-29T02:53:44;1.85;;;0.63;;
18172;SDS011;9211;48.818;9.312;2024-03-29T02:56:10;1.08;;;0.60;;
18172;SDS011;9211;48.818;9.312;2024-03-29T02:58:39;1.63;;;0.70;;
18172;SDS011;9211;48.818;9.312;2024-03-29T03:03:36;1.83;;;0.80;;
18172;SDS011;9211;48.818;9.312;2024-03-29T03:06:04;1.30;;;0.70;;
18172;SDS011;9211;48.818;9.312;2024-03-29T03:08:30;1.10;;;0.60;;
18172;SDS011;9211;48.818;9.312;2024-03-29T03:11:15;2.10;;;0.73;;
18172;SDS011;9211;48.818;9.312;2024-03-29T03:13:44;2.67;;;0.50;;
18172;SDS011;9211;48.818;9.312;2024-03-29T03:16:11;3.10;;;0.57;;
18172;SDS011;9211;48.818;9.312;2024-03-29T03:18:39;2.15;;;0.60;;
18172;SDS011;9211;48.818;9.312;2024-03-29T03:21:05;1.98;;;0.70;;
18172;SDS011;9211;48.818;9.312;2024-03-29T03:23:32;2.30;;;0.60;;
18172;SDS011;9211;48.818;9.312;2024-03-29T03:26:01;1.88;;;0.50;;
18172;SDS011;9211;48.818;9.312;2024-03-29T03:28:29;2.50;;;0.90;;
18172;SDS011;9211;48.818;9.312;2024-03-29T03:30:57;1.08;;;0.50;;
18172;SDS011;9211;48.818;9.312;2024-03-29T03:33:24;0.70;;;0.40;;
18172;SDS011;9211;48.818;9.312;2024-03-29T03:35:51;0.70;;;0.50;;
18172;SDS011;9211;48.818;9.312;2024-03-29T03:38:17;0.90;;;0.60;;
18172;SDS011;9211;48.818;9.312;2024-03-29T03:40:44;1.23;;;0.52;;
18172;SDS011;9211;48.818;9.312;2024-03-29T03:43:11;1.35;;;0.50;;
18172;SDS011;9211;48.818;9.312;2024-03-29T03:45:38;3.53;;;0.50;;
18172;SDS011;9211;48.818;9.312;2024-03-29T03:48:07;1.42;;;0.50;;
18172;SDS011;9211;48.818;9.312;2024-03-29T03:50:35;1.50;;;0.40;;
18172;SDS011;9211;48.818;9.312;2024-03-29T03:53:01;1.75;;;0.52;;
18172;SDS011;9211;48.818;9.312;2024-03-29T03:55:28;1.45;;;0.55;;
18172;SDS011;9211;48.818;9.312;2024-03-29T03:57:55;1.08;;;0.52;;
18172;SDS011;9211;48.818;9.312;2024-03-29T04:00:22;1.30;;;0.40;;
18172;SDS011;9211;48.818;9.312;2024-03-29T04:02:49;0.70;;;0.50;;
18172;SDS011;9211;48.818;9.312;2024-03-29T04:05:18;1.40;;;0.60;;
18172;SDS011;9211;48.818;9.312;2024-03-29T04:07:45;1.70;;;0.40;;
18172;SDS011;9211;48.818;9.312;2024-03-29T04:10:12;0.90;;;0.60;;
18172;SDS011;9211;48.818;9.312;2024-03-29T04:12:38;1.83;;;0.50;;
18172;SDS011;9211;48.818;9.312;2024-03-29T04:15:06;0.80;;;0.40;;
18172;SDS011;9211;48.818;9.312;2024-03-29T04:17:32;0.82;;;0.40;;
18172;SDS011;9211;48.818;9.312;2024-03-29T04:20:00;0.70;;;0.40;;
18172;SDS011;9211;48.818;9.312;2024-03-29T04:22:28;0.90;;;0.50;;
18172;SDS011;9211;48.818;9.312;2024-03-29T04:24:55;2.25;;;0.50;;
18172;SDS011;9211;48.818;9.312;2024-03-29T04:27:22;0.88;;;0.40;;
18172;SDS011;9211;48.818;9.312;2024-03-29T04:29:50;1.48;;;0.50;;
18172;SDS011;9211;48.818;9.312;2024-03-29T04:32:17;0.90;;;0.40;;
18172;SDS011;9211;48.818;9.312;2024-03-29T04:34:46;0.70;;;0.40;;
18172;SDS011;9211;48.818;9.312;2024-03-29T04:37:12;1.67;;;0.40;;
18172;SDS011;9211;48.818;9.312;2024-03-29T04:39:41;0.90;;;0.30;;
18172;SDS011;9211;48.818;9.312;2024-03-29T04:42:09;2.90;;;0.40;;
18172;SDS011;9211;48.818;9.312;2024-03-29T04:44:36;3.60;;;0.50;;
18172;SDS011;9211;48.818;9.312;2024-03-29T04:47:03;1.17;;;0.50;;
18172;SDS011;9211;48.818;9.312;2024-03-29T04:49:31;1.30;;;0.35;;
18172;SDS011;9211;48.818;9.312;2024-03-29T04:52:01;0.30;;;0.30;;
18172;SDS011;9211;48.818;9.312;2024-03-29T04:54:29;0.63;;;0.40;;
18172;SDS011;9211;48.818;9.312;2024-03-29T04:56:59;1.80;;;0.60;;
18172;SDS011;9211;48.818;9.312;2024-03-29T04:59:28;0.80;;;0.40;;
18172;SDS011;9211;48.818;9.312;2024-03-29T05:01:55;0.70;;;0.40;;
18172;SDS011;9211;48.818;9.312;2024-03-29T05:04:23;0.90;;;0.50;;
18172;SDS011;9211;48.818;9.312;2024-03-29T05:06:53;0.77;;;0.50;;
18172;SDS011;9211;48.818;9.312;2024-03-29T05:09:20;0.80;;;0.40;;
18172;SDS011;9211;48.818;9.312;2024-03-29T05:11:48;1.50;;;0.35;;
18172;SDS011;9211;48.818;9.312;2024-03-29T05:14:17;0.82;;;0.40;;
18172;SDS011;9211;48.818;9.312;2024-03-29T05:16:44;1.40;;;0.40;;
18172;SDS011;9211;48.818;9.312;2024-03-29T05:19:11;1.63;;;0.40;;
18172;SDS011;9211;48.818;9.312;2024-03-29T05:21:39;1.33;;;0.60;;
18172;SDS011;9211;48.818;9.312;2024-03-29T05:24:06;0.70;;;0.40;;
18172;SDS011;9211;48.818;9.312;2024-03-29T05:26:34;2.47;;;0.60;;
18172;SDS011;9211;48.818;9.312;2024-03-29T05:29:01;0.75;;;0.50;;
18172;SDS011;9211;48.818;9.312;2024-03-29T05:31:30;0.75;;;0.40;;
18172;SDS011;9211;48.818;9.312;2024-03-29T05:33:57;1.40;;;0.50;;
18172;SDS011;9211;48.818;9.312;2024-03-29T05:36:26;1.08;;;0.60;;
18172;SDS011;9211;48.818;9.312;2024-03-29T05:38:53;1.30;;;0.40;;
18172;SDS011;9211;48.818;9.312;2024-03-29T05:41:21;0.63;;;0.40;;
18172;SDS011;9211;48.818;9.312;2024-03-29T05:43:48;2.28;;;0.40;;
18172;SDS011;9211;48.818;9.312;2024-03-29T05:46:16;1.73;;;0.50;;
18172;SDS011;9211;48.818;9.312;2024-03-29T05:48:45;1.63;;;0.50;;
18172;SDS011;9211;48.818;9.312;2024-03-29T05:51:12;1.60;;;0.50;;
18172;SDS011;9211;48.818;9.312;2024-03-29T05:53:39;2.10;;;0.40;;
18172;SDS011;9211;48.818;9.312;2024-03-29T05:56:06;0.90;;;0.50;;
18172;SDS011;9211;48.818;9.312;2024-03-29T05:58:34;1.02;;;0.50;;
18172;SDS011;9211;48.818;9.312;2024-03-29T06:01:01;1.55;;;0.50;;
18172;SDS011;9211;48.818;9.312;2024-03-29T06:03:28;0.73;;;0.45;;
18172;SDS011;9211;48.818;9.312;2024-03-29T06:05:57;0.88;;;0.47;;
18172;SDS011;9211;48.818;9.312;2024-03-29T06:08:24;0.70;;;0.32;;
18172;SDS011;9211;48.818;9.312;2024-03-29T06:10:52;1.77;;;0.40;;
18172;SDS011;9211;48.818;9.312;2024-03-29T06:13:19;1.52;;;0.50;;
18172;SDS011;9211;48.818;9.312;2024-03-29T06:16:14;0.82;;;0.40;;
18172;SDS011;9211;48.818;9.312;2024-03-29T06:18:59;1.20;;;0.50;;
18172;SDS011;9211;48.818;9.312;2024-03-29T06:21:28;1.75;;;0.60;;
18172;SDS011;9211;48.818;9.312;2024-03-29T06:23:57;1.08;;;0.43;;
18172;SDS011;9211;48.818;9.312;2024-03-29T06:26:24;1.02;;;0.47;;
18172;SDS011;9211;48.818;9.312;2024-03-29T06:28:52;1.80;;;0.55;;
18172;SDS011;9211;48.818;9.312;2024-03-29T06:31:19;0.90;;;0.50;;
18172;SDS011;9211;48.818;9.312;2024-03-29T06:33:46;0.75;;;0.40;;
18172;SDS011;9211;48.818;9.312;2024-03-29T06:36:14;0.98;;;0.60;;
18172;SDS011;9211;48.818;9.312;2024-03-29T06:38:42;1.63;;;0.80;;
18172;SDS011;9211;48.818;9.312;2024-03-29T06:41:09;1.20;;;0.60;;
18172;SDS011;9211;48.818;9.312;2024-03-29T06:43:37;1.67;;;1.00;;
18172;SDS011;9211;48.818;9.312;2024-03-29T06:46:04;2.37;;;1.30;;
18172;SDS011;9211;48.818;9.312;2024-03-29T06:48:31;1.95;;;1.17;;
18172;SDS011;9211;48.818;9.312;2024-03-29T06:50:59;1.20;;;0.70;;
18172;SDS011;9211;48.818;9.312;2024-03-29T06:53:26;3.10;;;0.80;;
18172;SDS011;9211;48.818;9.312;2024-03-29T06:55:55;1.35;;;0.77;;
18172;SDS011;9211;48.818;9.312;2024-03-29T06:58:23;1.85;;;0.80;;
18172;SDS011;9211;48.818;9.312;2024-03-29T07:00:50;1.50;;;0.70;;
18172;SDS011;9211;48.818;9.312;2024-03-29T07:03:17;1.90;;;0.50;;
18172;SDS011;9211;48.818;9.312;2024-03-29T07:05:45;0.80;;;0.45;;
18172;SDS011;9211;48.818;9.312;2024-03-29T07:08:12;0.60;;;0.47;;
18172;SDS011;9211;48.818;9.312;2024-03-29T07:10:40;0.98;;;0.60;;
18172;SDS011;9211;48.818;9.312;2024-03-29T07:13:09;1.55;;;0.50;;
18172;SDS011;9211;48.818;9.312;2024-03-29T07:15:36;1.05;;;0.50;;
18172;SDS011;9211;48.818;9.312;2024-03-29T07:18:03;1.55;;;0.50;;
18172;SDS011;9211;48.818;9.312;2024-03-29T07:20:31;0.90;;;0.55;;
18172;SDS011;9211;48.818;9.312;2024-03-29T07:22:58;0.95;;;0.50;;
18172;SDS011;9211;48.818;9.312;2024-03-29T07:25:25;1.02;;;0.60;;
18172;SDS011;9211;48.818;9.312;2024-03-29T07:27:52;0.88;;;0.50;;
18172;SDS011;9211;48.818;9.312;2024-03-29T07:30:21;1.90;;;0.40;;
18172;SDS011;9211;48.818;9.312;2024-03-29T07:32:48;2.15;;;0.50;;
18172;SDS011;9211;48.818;9.312;2024-03-29T07:35:16;1.25;;;0.70;;
18172;SDS011;9211;48.818;9.312;2024-03-29T07:37:43;1.33;;;0.45;;
18172;SDS011;9211;48.818;9.312;2024-03-29T07:40:14;1.15;;;0.60;;
18172;SDS011;9211;48.818;9.312;2024-03-29T07:42:41;2.33;;;0.82;;
18172;SDS011;9211;48.818;9.312;2024-03-29T07:45:09;5.50;;;2.20;;
18172;SDS011;9211;48.818;9.312;2024-03-29T07:47:37;4.10;;;2.10;;
18172;SDS011;9211;48.818;9.312;2024-03-29T07:50:05;5.10;;;1.80;;
18172;SDS011;9211;48.818;9.312;2024-03-29T07:52:33;4.53;;;1.98;;
18172;SDS011;9211;48.818;9.312;2024-03-29T07:55:01;5.73;;;2.07;;
18172;SDS011;9211;48.818;9.312;2024-03-29T07:57:28;6.35;;;1.90;;
18172;SDS011;9211;48.818;9.312;2024-03-29T07:59:56;3.83;;;1.52;;
18172;SDS011;9211;48.818;9.312;2024-03-29T08:02:23;4.15;;;1.40;;
18172;SDS011;9211;48.818;9.312;2024-03-29T08:04:53;5.75;;;1.48;;
18172;SDS011;9211;48.818;9.312;2024-03-29T08:07:21;7.07;;;1.70;;
18172;SDS011;9211;48.818;9.312;2024-03-29T08:09:48;6.87;;;1.40;;
18172;SDS011;9211;48.818;9.312;2024-03-29T08:12:16;6.33;;;1.30;;
18172;SDS011;9211;48.818;9.312;2024-03-29T08:14:43;4.43;;;1.60;;
18172;SDS011;9211;48.818;9.312;2024-03-29T08:17:11;4.78;;;1.48;;
18172;SDS011;9211;48.818;9.312;2024-03-29T08:19:39;5.45;;;2.20;;
18172;SDS011;9211;48.818;9.312;2024-03-29T08:22:08;3.38;;;1.90;;
18172;SDS011;9211;48.818;9.312;2024-03-29T08:24:36;6.82;;;2.40;;
18172;SDS011;9211;48.818;9.312;2024-03-29T08:27:04;4.80;;;1.80;;
18172;SDS011;9211;48.818;9.312;2024-03-29T08:29:31;3.72;;;1.60;;
18172;SDS011;9211;48.818;9.312;2024-03-29T08:31:58;5.25;;;2.10;;
18172;SDS011;9211;48.818;9.312;2024-03-29T08:34:26;4.18;;;1.60;;
18172;SDS011;9211;48.818;9.312;2024-03-29T08:40:30;3.65;;;0.82;;
18172;SDS011;9211;48.818;9.312;2024-03-29T08:42:59;3.40;;;0.93;;
18172;SDS011;9211;48.818;9.312;2024-03-29T08:45:27;3.58;;;1.15;;
18172;SDS011;9211;48.818;9.312;2024-03-29T08:47:54;3.42;;;0.90;;
18172;SDS011;9211;48.818;9.312;2024-03-29T08:50:21;4.05;;;1.00;;
18172;SDS011;9211;48.818;9.312;2024-03-29T08:52:48;4.13;;;1.20;;
18172;SDS011;9211;48.818;9.312;2024-03-29T08:55:18;4.47;;;1.23;;
18172;SDS011;9211;48.818;9.312;2024-03-29T08:57:46;5.55;;;1.20;;
18172;SDS011;9211;48.818;9.312;2024-03-29T09:00:14;9.07;;;1.50;;
18172;SDS011;9211;48.818;9.312;2024-03-29T09:02:41;5.05;;;1.60;;
18172;SDS011;9211;48.818;9.312;2024-03-29T09:05:08;5.65;;;1.70;;
18172;SDS011;9211;48.818;9.312;2024-03-29T09:07:36;4.90;;;1.85;;
18172;SDS011;9211;48.818;9.312;2024-03-29T09:10:04;4.45;;;1.92;;
18172;SDS011;9211;48.818;9.312;2024-03-29T09:12:31;4.65;;;1.42;;
18172;SDS011;9211;48.818;9.312;2024-03-29T09:15:00;3.08;;;1.30;;
18172;SDS011;9211;48.818;9.312;2024-03-29T09:17:27;3.30;;;1.70;;
18172;SDS011;9211;48.818;9.312;2024-03-29T09:19:54;3.80;;;1.73;;
18172;SDS011;9211;48.818;9.312;2024-03-29T09:22:22;2.40;;;1.40;;
18172;SDS011;9211;48.818;9.312;2024-03-29T09:24:49;5.25;;;1.60;;
18172;SDS011;9211;48.818;9.312;2024-03-29T09:27:16;4.18;;;1.55;;
18172;SDS011;9211;48.818;9.312;2024-03-29T09:29:47;3.75;;;1.63;;
18172;SDS011;9211;48.818;9.312;2024-03-29T09:32:16;2.50;;;1.40;;
18172;SDS011;9211;48.818;9.312;2024-03-29T09:34:45;7.15;;;2.00;;
18172;SDS011;9211;48.818;9.312;2024-03-29T09:37:12;8.20;;;4.25;;
18172;SDS011;9211;48.818;9.312;2024-03-29T09:39:39;9.18;;;3.97;;
18172;SDS011;9211;48.818;9.312;2024-03-29T09:42:06;7.68;;;3.42;;
18172;SDS011;9211;48.818;9.312;2024-03-29T09:44:34;10.65;;;3.80;;
18172;SDS011;9211;48.818;9.312;2024-03-29T09:47:02;11.77;;;5.00;;
18172;SDS011;9211;48.818;9.312;2024-03-29T09:49:31;13.77;;;6.03;;
18172;SDS011;9211;48.818;9.312;2024-03-29T09:51:58;16.75;;;7.10;;
18172;SDS011;9211;48.818;9.312;2024-03-29T09:54:26;16.38;;;7.07;;
18172;SDS011;9211;48.818;9.312;2024-03-29T09:56:53;11.32;;;4.60;;
18172;SDS011;9211;48.818;9.312;2024-03-29T09:59:21;13.38;;;4.30;;
18172;SDS011;9211;48.818;9.312;2024-03-29T10:01:49;11.00;;;3.63;;
18172;SDS011;9211;48.818;9.312;2024-03-29T10:04:17;9.15;;;2.90;;
18172;SDS011;9211;48.818;9.312;2024-03-29T10:06:46;7.20;;;2.35;;
18172;SDS011;9211;48.818;9.312;2024-03-29T10:09:14;6.07;;;2.00;;
18172;SDS011;9211;48.818;9.312;2024-03-29T10:11:42;5.35;;;1.90;;
18172;SDS011;9211;48.818;9.312;2024-03-29T10:14:09;5.70;;;1.80;;
18172;SDS011;9211;48.818;9.312;2024-03-29T10:16:37;5.15;;;1.67;;
18172;SDS011;9211;48.818;9.312;2024-03-29T10:19:04;5.15;;;1.60;;
18172;SDS011;9211;48.818;9.312;2024-03-29T10:21:31;4.03;;;1.40;;
18172;SDS011;9211;48.818;9.312;2024-03-29T10:24:11;3.80;;;1.50;;
18172;SDS011;9211;48.818;9.312;2024-03-29T10:26:39;5.90;;;2.10;;
18172;SDS011;9211;48.818;9.312;2024-03-29T10:29:06;5.25;;;2.67;;
18172;SDS011;9211;48.818;9.312;2024-03-29T10:31:34;5.70;;;2.20;;
18172;SDS011;9211;48.818;9.312;2024-03-29T10:34:02;3.25;;;1.67;;
18172;SDS011;9211;48.818;9.312;2024-03-29T10:36:30;5.60;;;1.77;;
18172;SDS011;9211;48.818;9.312;2024-03-29T10:39:00;3.20;;;1.63;;
18172;SDS011;9211;48.818;9.312;2024-03-29T10:41:30;2.97;;;1.63;;
18172;SDS011;9211;48.818;9.312;2024-03-29T10:43:58;2.95;;;1.40;;
18172;SDS011;9211;48.818;9.312;2024-03-29T10:46:29;3.53;;;1.50;;
18172;SDS011;9211;48.818;9.312;2024-03-29T10:48:56;2.83;;;1.50;;
18172;SDS011;9211;48.818;9.312;2024-03-29T10:51:24;3.60;;;1.40;;
18172;SDS011;9211;48.818;9.312;2024-03-29T10:53:51;5.25;;;1.60;;
18172;SDS011;9211;48.818;9.312;2024-03-29T10:56:19;2.90;;;1.40;;
18172;SDS011;9211;48.818;9.312;2024-03-29T10:58:49;3.03;;;1.30;;
18172;SDS011;9211;48.818;9.312;2024-03-29T11:01:18;3.03;;;1.40;;
18172;SDS011;9211;48.818;9.312;2024-03-29T11:03:48;3.28;;;1.48;;
18172;SDS011;9211;48.818;9.312;2024-03-29T11:06:17;3.90;;;1.42;;
18172;SDS011;9211;48.818;9.312;2024-03-29T11:08:50;3.15;;;1.38;;
18172;SDS011;9211;48.818;9.312;2024-03-29T11:11:18;3.20;;;1.50;;
18172;SDS011;9211;48.818;9.312;2024-03-29T11:13:52;2.30;;;1.27;;
18172;SDS011;9211;48.818;9.312;2024-03-29T11:16:20;3.65;;;1.17;;
18172;SDS011;9211;48.818;9.312;2024-03-29T11:18:47;2.35;;;1.20;;
18172;SDS011;9211;48.818;9.312;2024-03-29T11:21:15;2.23;;;0.97;;
18172;SDS011;9211;48.818;9.312;2024-03-29T11:23:47;1.70;;;0.80;;
18172;SDS011;9211;48.818;9.312;2024-03-29T11:26:14;3.15;;;1.05;;
18172;SDS011;9211;48.818;9.312;2024-03-29T11:28:48;1.95;;;0.90;;
18172;SDS011;9211;48.818;9.312;2024-03-29T11:31:16;1.98;;;0.90;;
18172;SDS011;9211;48.818;9.312;2024-03-29T11:33:44;3.38;;;1.00;;
18172;SDS011;9211;48.818;9.312;2024-03-29T11:36:14;1.15;;;0.80;;
18172;SDS011;9211;48.818;9.312;2024-03-29T11:38:42;2.67;;;1.00;;
18172;SDS011;9211;48.818;9.312;2024-03-29T11:41:10;1.60;;;0.90;;
18172;SDS011;9211;48.818;9.312;2024-03-29T11:43:37;3.23;;;1.23;;
18172;SDS011;9211;48.818;9.312;2024-03-29T11:46:05;4.78;;;1.00;;
18172;SDS011;9211;48.818;9.312;2024-03-29T11:48:34;3.88;;;1.20;;
18172;SDS011;9211;48.818;9.312;2024-03-29T11:51:02;2.17;;;1.20;;
18172;SDS011;9211;48.818;9.312;2024-03-29T11:53:29;3.05;;;1.20;;
18172;SDS011;9211;48.818;9.312;2024-03-29T11:55:57;2.47;;;0.98;;
18172;SDS011;9211;48.818;9.312;2024-03-29T11:58:25;2.15;;;1.15;;
18172;SDS011;9211;48.818;9.312;2024-03-29T12:00:53;1.95;;;1.10;;
18172;SDS011;9211;48.818;9.312;2024-03-29T12:03:21;2.40;;;0.88;;
18172;SDS011;9211;48.818;9.312;2024-03-29T12:05:50;2.38;;;1.10;;
18172;SDS011;9211;48.818;9.312;2024-03-29T12:08:19;2.33;;;0.93;;
18172;SDS011;9211;48.818;9.312;2024-03-29T12:10:47;3.90;;;1.10;;
18172;SDS011;9211;48.818;9.312;2024-03-29T12:13:15;2.78;;;1.55;;
18172;SDS011;9211;48.818;9.312;2024-03-29T12:15:43;3.27;;;1.50;;
18172;SDS011;9211;48.818;9.312;2024-03-29T12:18:10;2.92;;;1.40;;
18172;SDS011;9211;48.818;9.312;2024-03-29T12:20:38;3.23;;;1.10;;
18172;SDS011;9211;48.818;9.312;2024-03-29T12:23:12;1.90;;;0.70;;
18172;SDS011;9211;48.818;9.312;2024-03-29T12:25:40;2.23;;;0.90;;
18172;SDS011;9211;48.818;9.312;2024-03-29T12:28:09;1.40;;;0.70;;
18172;SDS011;9211;48.818;9.312;2024-03-29T12:30:37;8.43;;;0.80;;
18172;SDS011;9211;48.818;9.312;2024-03-29T12:33:07;3.00;;;0.90;;
18172;SDS011;9211;48.818;9.312;2024-03-29T12:35:35;2.63;;;0.82;;
18172;SDS011;9211;48.818;9.312;2024-03-29T12:38:03;2.35;;;0.82;;
18172;SDS011;9211;48.818;9.312;2024-03-29T12:40:33;1.40;;;0.70;;
18172;SDS011;9211;48.818;9.312;2024-03-29T12:43:03;2.75;;;1.00;;
18172;SDS011;9211;48.818;9.312;2024-03-29T12:45:31;1.42;;;0.80;;
18172;SDS011;9211;48.818;9.312;2024-03-29T12:47:58;4.20;;;0.90;;
18172;SDS011;9211;48.818;9.312;2024-03-29T12:50:26;2.03;;;1.00;;
18172;SDS011;9211;48.818;9.312;2024-03-29T12:52:56;2.10;;;0.90;;
18172;SDS011;9211;48.818;9.312;2024-03-29T12:55:23;1.30;;;0.80;;
18172;SDS011;9211;48.818;9.312;2024-03-29T12:57:54;1.50;;;0.85;;
18172;SDS011;9211;48.818;9.312;2024-03-29T13:00:22;2.50;;;0.80;;
18172;SDS011;9211;48.818;9.312;2024-03-29T13:02:49;2.40;;;0.70;;
18172;SDS011;9211;48.818;9.312;2024-03-29T13:05:17;3.13;;;0.80;;
18172;SDS011;9211;48.818;9.312;2024-03-29T13:07:44;1.10;;;0.68;;
18172;SDS011;9211;48.818;9.312;2024-03-29T13:10:11;2.72;;;0.75;;
18172;SDS011;9211;48.818;9.312;2024-03-29T13:12:40;1.50;;;0.80;;
18172;SDS011;9211;48.818;9.312;2024-03-29T13:15:17;1.80;;;0.70;;
18172;SDS011;9211;48.818;9.312;2024-03-29T13:17:45;1.67;;;0.60;;
18172;SDS011;9211;48.818;9.312;2024-03-29T13:20:14;1.27;;;0.70;;
18172;SDS011;9211;48.818;9.312;2024-03-29T13:22:42;0.90;;;0.60;;
18172;SDS011;9211;48.818;9.312;2024-03-29T13:25:11;1.30;;;0.60;;
18172;SDS011;9211;48.818;9.312;2024-03-29T13:27:38;1.55;;;0.57;;
18172;SDS011;9211;48.818;9.312;2024-03-29T13:30:05;1.73;;;0.60;;
18172;SDS011;9211;48.818;9.312;2024-03-29T13:32:34;3.20;;;0.90;;
18172;SDS011;9211;48.818;9.312;2024-03-29T13:35:01;1.05;;;0.55;;
18172;SDS011;9211;48.818;9.312;2024-03-29T13:37:30;0.90;;;0.50;;
18172;SDS011;9211;48.818;9.312;2024-03-29T13:40:00;1.83;;;0.85;;
18172;SDS011;9211;48.818;9.312;2024-03-29T13:42:29;1.23;;;0.50;;
18172;SDS011;9211;48.818;9.312;2024-03-29T13:44:56;1.25;;;0.70;;
18172;SDS011;9211;48.818;9.312;2024-03-29T13:47:22;1.67;;;0.80;;
18172;SDS011;9211;48.818;9.312;2024-03-29T13:49:51;1.45;;;0.70;;
18172;SDS011;9211;48.818;9.312;2024-03-29T13:52:20;2.20;;;0.60;;
18172;SDS011;9211;48.818;9.312;2024-03-29T13:54:47;1.05;;;0.52;;
18172;SDS011;9211;48.818;9.312;2024-03-29T13:57:15;2.60;;;0.70;;
18172;SDS011;9211;48.818;9.312;2024-03-29T13:59:43;2.33;;;0.68;;
18172;SDS011;9211;48.818;9.312;2024-03-29T14:02:11;0.77;;;0.57;;
18172;SDS011;9211;48.818;9.312;2024-03-29T14:04:39;1.77;;;0.80;;
18172;SDS011;9211;48.818;9.312;2024-03-29T14:07:08;0.88;;;0.68;;
18172;SDS011;9211;48.818;9.312;2024-03-29T14:09:36;2.53;;;0.80;;
18172;SDS011;9211;48.818;9.312;2024-03-29T14:12:04;1.77;;;0.68;;
18172;SDS011;9211;48.818;9.312;2024-03-29T14:14:31;2.42;;;0.60;;
18172;SDS011;9211;48.818;9.312;2024-03-29T14:16:58;1.30;;;0.60;;
18172;SDS011;9211;48.818;9.312;2024-03-29T14:19:29;1.50;;;0.80;;
18172;SDS011;9211;48.818;9.312;2024-03-29T14:21:56;2.67;;;0.85;;
18172;SDS011;9211;48.818;9.312;2024-03-29T14:24:25;1.08;;;0.68;;
18172;SDS011;9211;48.818;9.312;2024-03-29T14:26:53;1.20;;;0.70;;
18172;SDS011;9211;48.818;9.312;2024-03-29T14:29:20;1.90;;;1.00;;
18172;SDS011;9211;48.818;9.312;2024-03-29T14:31:47;2.70;;;1.00;;
18172;SDS011;9211;48.818;9.312;2024-03-29T14:34:15;2.30;;;0.70;;
18172;SDS011;9211;48.818;9.312;2024-03-29T14:36:42;1.92;;;0.70;;
18172;SDS011;9211;48.818;9.312;2024-03-29T14:39:10;1.63;;;0.70;;
18172;SDS011;9211;48.818;9.312;2024-03-29T14:41:39;1.50;;;0.65;;
18172;SDS011;9211;48.818;9.312;2024-03-29T14:44:07;1.73;;;0.70;;
18172;SDS011;9211;48.818;9.312;2024-03-29T14:46:34;1.42;;;0.73;;
18172;SDS011;9211;48.818;9.312;2024-03-29T14:49:02;0.90;;;0.70;;
18172;SDS011;9211;48.818;9.312;2024-03-29T14:51:32;1.60;;;0.73;;
18172;SDS011;9211;48.818;9.312;2024-03-29T14:53:59;1.90;;;0.80;;
18172;SDS011;9211;48.818;9.312;2024-03-29T14:56:28;2.63;;;0.65;;
18172;SDS011;9211;48.818;9.312;2024-03-29T14:58:57;1.38;;;0.70;;
18172;SDS011;9211;48.818;9.312;2024-03-29T15:01:25;1.27;;;0.60;;
18172;SDS011;9211;48.818;9.312;2024-03-29T15:03:52;1.15;;;0.60;;
18172;SDS011;9211;48.818;9.312;2024-03-29T15:06:20;2.55;;;0.73;;
18172;SDS011;9211;48.818;9.312;2024-03-29T15:08:49;3.20;;;0.70;;
18172;SDS011;9211;48.818;9.312;2024-03-29T15:11:16;0.80;;;0.70;;